createdAt,value
2023-05-24T00:01:41.084Z,23.40
2023-05-24T00:07:03.473Z,24.40
2023-05-24T00:12:50.654Z,24.10
2023-05-24T00:18:00.703Z,23.60
2023-05-24T00:23:16.630Z,25.50
2023-05-24T00:28:41.645Z,24.50
2023-05-24T00:33:57.564Z,24.10
2023-05-24T00:39:08.165Z,23.70
2023-05-24T00:44:52.205Z,22.10
2023-05-24T00:50:25.693Z,21.40
2023-05-24T00:56:05.151Z,20.30
2023-05-24T01:01:21.837Z,20.00
2023-05-24T01:07:22.870Z,19.50
2023-05-24T01:13:27.819Z,20.50
2023-05-24T01:19:02.090Z,20.20
2023-05-24T01:30:00.933Z,20.70
2023-05-24T01:35:23.810Z,21.40
2023-05-24T01:40:41.474Z,20.80
2023-05-24T01:46:12.034Z,19.90
2023-05-24T01:51:34.286Z,21.60
2023-05-24T01:56:57.763Z,21.20
2023-05-24T02:02:23.278Z,21.10
2023-05-24T02:07:55.362Z,21.40
2023-05-24T02:13:19.852Z,22.30
2023-05-24T02:18:41.527Z,23.10
2023-05-24T02:24:04.883Z,22.90
2023-05-24T02:29:11.916Z,22.30
2023-05-24T02:34:15.941Z,21.80
2023-05-24T02:39:35.553Z,23.40
2023-05-24T02:45:06.205Z,24.70
2023-05-24T02:50:36.851Z,24.80
2023-05-24T02:55:57.217Z,24.50
2023-05-24T03:01:25.107Z,25.70
2023-05-24T03:06:47.339Z,26.20
2023-05-24T03:12:07.990Z,23.90
2023-05-24T03:17:23.772Z,26.40
2023-05-24T03:22:46.457Z,24.90
2023-05-24T03:28:03.060Z,23.30
2023-05-24T03:33:20.304Z,19.80
2023-05-24T03:38:35.416Z,17.00
2023-05-24T03:43:48.171Z,15.60
2023-05-24T03:49:13.064Z,15.90
2023-05-24T03:54:31.426Z,18.90
2023-05-24T04:00:12.722Z,14.20
2023-05-24T04:05:51.290Z,14.00
2023-05-24T04:11:39.578Z,8.20
2023-05-24T04:16:57.586Z,6.00
2023-05-24T04:22:33.350Z,6.00
2023-05-24T04:27:39.982Z,3.60
2023-05-24T04:32:52.118Z,2.90
2023-05-24T04:38:09.411Z,4.00
2023-05-24T04:43:22.685Z,2.90
2023-05-24T04:48:39.193Z,3.30
2023-05-24T04:53:44.813Z,2.20
2023-05-24T04:58:57.438Z,4.70
2023-05-24T05:04:22.486Z,5.00
2023-05-24T05:09:43.714Z,7.80
2023-05-24T05:15:01.564Z,6.40
2023-05-24T05:20:19.263Z,4.40
2023-05-24T05:25:27.472Z,5.00
2023-05-24T05:30:35.601Z,5.60
2023-05-24T05:36:03.652Z,9.50
2023-05-24T05:41:12.176Z,9.20
2023-05-24T05:46:27.949Z,7.70
2023-05-24T05:51:46.973Z,6.80
2023-05-24T05:56:59.526Z,5.00
2023-05-24T06:02:23.035Z,5.30
2023-05-24T06:07:28.856Z,8.00
2023-05-24T06:12:51.388Z,10.90
2023-05-24T06:17:56.634Z,9.70
2023-05-24T06:23:03.322Z,9.30
2023-05-24T06:28:09.639Z,9.10
2023-05-24T06:33:11.687Z,9.10
2023-05-24T06:38:27.952Z,9.50
2023-05-24T06:43:46.145Z,6.90
2023-05-24T06:48:48.802Z,6.30
2023-05-24T06:54:11.850Z,4.20
2023-05-24T06:59:37.574Z,7.00
2023-05-24T07:04:42.632Z,6.80
2023-05-24T07:09:50.194Z,7.20
2023-05-24T07:14:56.249Z,7.30
2023-05-24T07:19:59.883Z,8.70
2023-05-24T07:25:23.082Z,7.90
2023-05-24T07:30:32.596Z,8.80
2023-05-24T07:35:52.463Z,9.70
2023-05-24T07:40:59.280Z,10.90
2023-05-24T07:46:01.650Z,10.90
2023-05-24T07:51:09.734Z,10.70
2023-05-24T07:56:15.428Z,8.30
2023-05-24T08:01:23.690Z,10.10
2023-05-24T08:06:25.933Z,11.00
2023-05-24T08:11:31.267Z,9.10
2023-05-24T08:16:33.927Z,7.80
2023-05-24T08:21:37.783Z,7.10
2023-05-24T08:26:43.814Z,7.10
2023-05-24T08:31:49.339Z,6.50
2023-05-24T08:36:55.189Z,6.50
2023-05-24T08:42:08.837Z,7.00
2023-05-24T08:47:13.846Z,5.20
2023-05-24T08:52:16.442Z,6.60
2023-05-24T08:57:20.236Z,7.20
2023-05-24T09:02:23.697Z,6.40
2023-05-24T09:07:33.217Z,5.80
2023-05-24T09:12:39.538Z,5.30
2023-05-24T09:17:41.716Z,8.20
2023-05-24T09:22:53.654Z,4.20
2023-05-24T09:28:30.902Z,5.70
2023-05-24T09:33:38.883Z,4.30
2023-05-24T09:38:50.246Z,3.70
2023-05-24T09:44:03.403Z,5.60
2023-05-24T09:49:09.641Z,7.90
2023-05-24T09:54:16.936Z,6.30
2023-05-24T09:59:24.582Z,8.10
2023-05-24T10:04:34.336Z,8.00
2023-05-24T10:09:36.705Z,7.40
2023-05-24T10:14:39.490Z,7.40
2023-05-24T10:19:42.056Z,6.90
2023-05-24T10:24:50.562Z,7.70
2023-05-24T10:30:14.921Z,8.60
2023-05-24T10:35:20.256Z,8.40
2023-05-24T10:40:27.467Z,7.50
2023-05-24T10:45:35.571Z,9.10
2023-05-24T10:50:38.073Z,6.80
2023-05-24T10:55:57.297Z,7.10
2023-05-24T11:00:59.476Z,8.90
2023-05-24T11:06:01.756Z,7.20
2023-05-24T11:11:23.238Z,11.80
2023-05-24T11:16:37.525Z,6.50
2023-05-24T11:21:43.664Z,7.10
2023-05-24T11:26:46.513Z,6.90
2023-05-24T11:31:57.622Z,7.90
2023-05-24T11:37:34.924Z,5.40
2023-05-24T11:42:44.812Z,5.50
2023-05-24T11:47:50.688Z,5.50
2023-05-24T11:52:54.025Z,4.80
2023-05-24T11:58:02.437Z,5.10
2023-05-24T12:03:07.732Z,6.80
2023-05-24T12:08:34.868Z,4.80
2023-05-24T12:13:38.176Z,4.70
2023-05-24T12:18:51.420Z,5.80
2023-05-24T12:24:14.674Z,5.10
2023-05-24T12:29:20.215Z,5.40
2023-05-24T12:34:25.122Z,6.00
2023-05-24T12:39:31.889Z,10.00
2023-05-24T12:44:36.652Z,6.90
2023-05-24T12:49:38.979Z,5.90
2023-05-24T12:54:41.596Z,6.40
2023-05-24T12:59:43.762Z,5.20
2023-05-24T13:04:46.486Z,6.40
2023-05-24T13:09:52.128Z,6.10
2023-05-24T13:14:54.359Z,6.10
2023-05-24T13:19:57.473Z,5.40
2023-05-24T13:24:59.495Z,10.40
2023-05-24T13:30:06.224Z,9.30
2023-05-24T13:40:14.787Z,6.10
2023-05-24T13:45:17.539Z,6.20
2023-05-24T13:50:23.921Z,9.60
2023-05-24T13:55:37.096Z,8.80
2023-05-24T14:00:44.173Z,9.50
2023-05-24T14:05:49.075Z,8.50
2023-05-24T14:10:51.875Z,6.90
2023-05-24T14:15:55.379Z,8.00
2023-05-24T14:20:57.644Z,10.00
2023-05-24T14:26:00.176Z,8.00
2023-05-24T14:31:10.582Z,8.30
2023-05-24T14:36:12.709Z,9.40
2023-05-24T14:41:16.296Z,7.40
2023-05-24T14:46:18.875Z,9.60
2023-05-24T14:51:21.587Z,8.30
2023-05-24T14:56:23.790Z,8.60
2023-05-24T15:01:26.528Z,7.30
2023-05-24T15:06:34.710Z,7.10
2023-05-24T15:11:37.889Z,8.80
2023-05-24T15:16:42.309Z,7.00
2023-05-24T15:21:44.731Z,8.40
2023-05-24T15:26:47.449Z,8.60
2023-05-24T15:31:50.387Z,9.20
2023-05-24T15:36:55.645Z,8.80
2023-05-24T15:41:57.858Z,7.80
2023-05-24T15:47:00.166Z,6.80
2023-05-24T15:52:04.738Z,8.60
2023-05-24T15:57:07.773Z,5.80
2023-05-24T16:02:09.832Z,6.30
2023-05-24T16:07:12.645Z,5.90
2023-05-24T16:12:14.531Z,6.80
2023-05-24T16:17:16.664Z,9.20
2023-05-24T16:22:18.621Z,5.80
2023-05-24T16:27:21.926Z,8.90
2023-05-24T16:32:24.242Z,7.60
2023-05-24T16:37:26.241Z,7.30
2023-05-24T16:42:31.472Z,7.70
2023-05-24T16:47:34.319Z,6.20
2023-05-24T16:52:37.049Z,7.30
2023-05-24T16:57:39.277Z,7.60
2023-05-24T17:02:41.529Z,6.10
2023-05-24T17:07:45.389Z,7.00
2023-05-24T17:12:47.560Z,5.60
2023-05-24T17:17:51.401Z,6.00
2023-05-24T17:22:55.871Z,8.40
2023-05-24T17:27:58.037Z,6.70
2023-05-24T17:33:00.030Z,6.80
2023-05-24T17:38:02.180Z,7.30
2023-05-24T17:43:05.328Z,6.80
2023-05-24T17:48:08.091Z,7.80
2023-05-24T17:53:22.724Z,7.90
2023-05-24T17:58:36.307Z,6.40
2023-05-24T18:03:40.936Z,8.40
2023-05-24T18:08:44.296Z,6.50
2023-05-24T18:13:47.024Z,9.60
2023-05-24T18:18:49.136Z,7.90
2023-05-24T18:23:51.226Z,7.90
2023-05-24T18:28:54.102Z,14.60
2023-05-24T18:33:56.240Z,7.50
2023-05-24T18:38:58.255Z,8.40
2023-05-24T18:44:00.888Z,8.10
2023-05-24T18:49:04.193Z,9.90
2023-05-24T18:54:07.396Z,8.30
2023-05-24T18:59:17.063Z,10.10
2023-05-24T19:09:21.864Z,12.90
2023-05-24T19:14:24.165Z,9.80
2023-05-24T19:19:26.608Z,10.10
2023-05-24T19:24:28.468Z,16.20
2023-05-24T19:29:34.598Z,12.70
2023-05-24T19:34:37.443Z,11.80
2023-05-24T19:39:39.501Z,12.20
2023-05-24T19:44:41.329Z,13.20
2023-05-24T19:49:43.298Z,10.80
2023-05-24T19:54:48.474Z,10.10
2023-05-24T19:59:50.574Z,11.90
2023-05-24T20:04:53.205Z,13.00
2023-05-24T20:09:56.140Z,11.60
2023-05-24T20:14:58.326Z,13.20
2023-05-24T20:20:00.711Z,12.30
2023-05-24T20:25:03.747Z,11.60
2023-05-24T20:30:17.793Z,11.40
2023-05-24T20:35:20.995Z,11.50
2023-05-24T20:40:26.923Z,13.70
2023-05-24T20:45:29.236Z,14.10
2023-05-24T20:50:33.776Z,13.30
2023-05-24T20:55:36.064Z,14.70
2023-05-24T21:00:40.087Z,9.70
2023-05-24T21:05:43.144Z,14.00
2023-05-24T21:10:51.153Z,13.60
2023-05-24T21:16:13.472Z,12.00
2023-05-24T21:21:16.857Z,14.30
2023-05-24T21:26:19.305Z,11.60
2023-05-24T21:31:21.538Z,12.90
2023-05-24T21:36:23.969Z,11.00
2023-05-24T21:41:31.622Z,14.20
2023-05-24T21:46:36.537Z,12.90
2023-05-24T21:51:53.768Z,10.70
2023-05-24T21:57:06.831Z,11.50
2023-05-24T22:02:12.339Z,12.50
2023-05-24T22:08:30.323Z,13.70
2023-05-24T22:13:32.878Z,10.90
2023-05-24T22:18:49.682Z,13.40
2023-05-24T22:24:38.401Z,11.90
2023-05-24T22:29:43.915Z,11.70
2023-05-24T22:34:49.254Z,11.70
2023-05-24T22:39:51.452Z,11.30
2023-05-24T22:44:56.416Z,11.90
2023-05-24T22:50:01.879Z,10.40
2023-05-24T22:55:08.146Z,12.40
2023-05-24T23:00:11.896Z,13.30
2023-05-24T23:05:15.101Z,12.50
2023-05-24T23:10:23.044Z,14.00
2023-05-24T23:15:29.056Z,10.70
2023-05-24T23:20:42.172Z,10.30
2023-05-24T23:25:47.329Z,13.00
2023-05-24T23:30:49.716Z,14.00
2023-05-24T23:35:53.631Z,15.00
2023-05-24T23:40:59.087Z,12.40
2023-05-24T23:46:03.625Z,13.20
2023-05-24T23:51:10.218Z,13.30
2023-05-24T23:56:13.798Z,12.90
